Flight Track Log - Related Links

Times and Time Zones

All times are in EST time to prevent confusion due to time zone crossing. See the N789EX flight status page for this flight to view local times or setup timezone preferences in your user account.


Time Position Orientation Groundspeed Altitude Reporting Facility
EST Latitude Longitude Course Direction KTS MPH feet Rate Location/Type
Sun 01:17:23 PM 47.5547 -122.3264 326° Northwest 192 221 1,300  Level Seattle Center
Sun 01:18:06 PM 47.5906 -122.3625 326° Northwest 211 243 2,100 1,102 Climbing Seattle Center
Sun 01:18:12 PM 47.5950 -122.3658 333° Northwest 212 244 2,200 2,149 Climbing Seattle Center
Sun 01:19:13 PM 47.6414 -122.4400 313° West 257 296 4,500 2,754 Climbing Seattle Center
Sun 01:20:14 PM 47.7014 -122.4953 328° Northwest 267 307 7,800 2,902 Climbing Seattle Center
Sun 01:21:15 PM 47.7700 -122.4358 30° Northeast 294 338 10,400 1,820 Climbing Seattle Center
Sun 01:22:16 PM 47.8386 -122.3628 36° Northeast 312 359 11,500 1,525 Climbing Seattle Center
Sun 01:23:17 PM 47.9247 -122.2758 34° Northeast 367 422 13,500 1,721 Climbing Seattle Center
Sun 01:24:18 PM 48.0200 -122.2036 27° Northeast 383 441 15,000 787 Climbing Seattle Center
Sun 01:25:19 PM 48.1150 -122.1225 30° Northeast 392 451 15,100 50 Climbing Seattle Center
Sun 01:26:19 PM 48.1264 -121.9603 84° East 394 453 15,100 -545 Level Seattle Center
Sun 01:27:20 PM 48.1181 -121.8000 94° East 387 445 14,000 -1,475 Descending Seattle Center
Sun 01:28:21 PM 48.1094 -121.6447 95° East 376 433 12,100 -1,820 Descending Seattle Center
Sun 01:29:22 PM 48.0989 -121.4944 96° East 365 420 10,300 -885 Descending Seattle Center
Sun 01:30:23 PM 48.0900 -121.3600 96° East 320 368 10,300  Level Seattle Center
Sun 01:31:24 PM 48.0794 -121.2358 97° East 305 351 10,300  Level Seattle Center
Sun 01:32:25 PM 48.0703 -121.1114 96° East 303 349 10,300  Level Seattle Center
Sun 01:33:26 PM 48.0617 -120.9853 96° East 304 350 10,300 49 Level Seattle Center
Sun 01:34:27 PM 48.0528 -120.8347 95° East 304 350 10,400 49 Climbing Seattle Center
Sun 01:35:28 PM 48.0447 -120.7239 96° East 304 350 10,400  Level Seattle Center
Sun 01:36:29 PM 48.0353 -120.5961 96° East 308 354 10,400  Level Seattle Center
Sun 01:37:29 PM 48.0297 -120.4692 94° East 308 354 10,400  Level Seattle Center
Sun 01:38:30 PM 48.0233 -120.3408 94° East 309 356 10,400  Level Seattle Center
Sun 01:39:31 PM 48.0150 -120.2133 96° East 310 357 10,400  Level Seattle Center
Sun 01:40:32 PM 48.0058 -120.0589 95° East 311 358 10,400  Level Seattle Center
Sun 01:41:33 PM 47.9992 -119.9308 94° East 311 358 10,400  Level Seattle Center
Sun 01:42:34 PM 47.9928 -119.8028 94° East 311 358 10,400  Level Seattle Center
Sun 01:43:35 PM 47.9861 -119.6753 94° East 310 357 10,400  Level Seattle Center
Sun 01:44:36 PM 47.9794 -119.5472 94° East 309 356 10,400  Level Seattle Center
Sun 01:45:37 PM 47.9714 -119.4178 95° East 312 359 10,400  Level Seattle Center
Sun 01:46:38 PM 47.9617 -119.2889 96° East 314 361 10,400 -49 Level Seattle Center
Sun 01:47:39 PM 47.9536 -119.1583 95° East 316 364 10,300 -49 Descending Seattle Center
Sun 01:48:40 PM 47.9439 -119.0300 96° East 314 361 10,300  Level Seattle Center
Sun 01:49:41 PM 47.9358 -118.9028 95° East 310 357 10,300  Level Seattle Center
Sun 01:50:42 PM 47.9272 -118.7725 96° East 315 362 10,300  Level Seattle Center
Sun 01:51:43 PM 47.9175 -118.6450 96° East 312 359 10,300  Level Seattle Center
Sun 01:52:44 PM 47.9089 -118.5164 96° East 312 359 10,300  Level Seattle Center
Sun 01:53:45 PM 47.8981 -118.3617 96° East 313 360 10,300  Level Seattle Center
Sun 01:54:46 PM 47.8886 -118.2325 96° East 314 361 10,300  Level Seattle Center
Sun 01:55:47 PM 47.8797 -118.1053 96° East 311 358 10,300  Level Seattle Center
Sun 01:56:48 PM 47.8711 -117.9775 96° East 310 357 10,300  Level Seattle Center
Sun 01:57:49 PM 47.8639 -117.8506 95° East 309 356 10,300  Level Seattle Center
Sun 01:58:50 PM 47.8569 -117.7233 95° East 308 354 10,300  Level Seattle Center
Sun 01:59:51 PM 47.8467 -117.5969 97° East 308 354 10,300  Level Seattle Center
Sun 02:00:52 PM 47.8339 -117.4722 99° East 304 350 10,300  Level Seattle Center
Sun 02:01:53 PM 47.8217 -117.3467 98° East 306 352 10,300  Level Seattle Center
Sun 02:02:54 PM 47.8089 -117.2200 98° East 307 353 10,300  Level Seattle Center
Sun 02:03:55 PM 47.7950 -117.0794 98° East 310 357 10,300  Level Seattle Center
Sun 02:04:56 PM 47.7811 -116.9433 99° East 309 356 10,300  Level Seattle Center
Sun 02:05:57 PM 47.7692 -116.8361 99° East 311 358 10,300  Level Seattle Center
Sun 02:06:58 PM 47.7564 -116.7075 98° East 312 359 10,300  Level Seattle Center
Sun 02:07:59 PM 47.7442 -116.5806 98° East 312 359 10,300  Level Seattle Center
Sun 02:09:00 PM 47.7317 -116.4525 98° East 311 358 10,300  Level Seattle Center
Sun 02:10:01 PM 47.7161 -116.3008 99° East 311 358 10,300  Level Seattle Center
Sun 02:11:02 PM 47.7042 -116.1731 98° East 311 358 10,300  Level Seattle Center
Sun 02:12:03 PM 47.6911 -116.0453 99° East 314 361 10,300  Level Seattle Center
Sun 02:13:04 PM 47.6786 -115.9181 98° East 314 361 10,300  Level Seattle Center
Sun 02:14:05 PM 47.6667 -115.7897 98° East 314 361 10,300  Level Seattle Center
Sun 02:15:06 PM 47.6731 -115.6747 85° East 313 360 10,300  Level Seattle Center
Sun 02:16:07 PM 47.7344 -115.6911 350° North 286 329 10,300  Level Seattle Center
Sun 02:17:09 PM 47.7206 -115.8067 260° West 270 311 10,300  Level Seattle Center
Sun 02:18:10 PM 47.7144 -115.9147 265° West 265 305 10,300  Level Seattle Center
Sun 02:19:11 PM 47.7161 -116.0250 271° West 267 307 10,300  Level Seattle Center
Sun 02:20:12 PM 47.7231 -116.1356 275° West 269 310 10,300  Level Seattle Center
Sun 02:21:13 PM 47.7331 -116.2433 278° West 267 307 10,300  Level Seattle Center
Sun 02:22:14 PM 47.7439 -116.3744 277° West 268 308 10,300  Level Seattle Center
Sun 02:23:15 PM 47.7531 -116.4828 277° West 267 307 10,300  Level Seattle Center
Sun 02:24:16 PM 47.7614 -116.5911 277° West 267 307 10,300  Level Seattle Center
Sun 02:25:17 PM 47.7694 -116.6992 276° West 266 306 10,300  Level Seattle Center
Sun 02:26:18 PM 47.7794 -116.8072 278° West 267 307 10,300  Level Seattle Center
Sun 02:27:19 PM 47.7931 -116.9333 279° West 269 310 10,300  Level Seattle Center
Sun 02:28:20 PM 47.8019 -117.0242 278° West 269 310 10,300  Level Seattle Center
Sun 02:29:21 PM 47.8072 -117.1331 274° West 269 310 10,300  Level Seattle Center
Sun 02:30:22 PM 47.8167 -117.2653 276° West 271 312 10,300  Level Seattle Center
Sun 02:31:23 PM 47.8267 -117.3761 278° West 272 313 10,300 -98 Level Seattle Center
Sun 02:32:25 PM 47.8358 -117.4875 277° West 273 314 10,100 -146 Descending Seattle Center
Sun 02:33:26 PM 47.8458 -117.5986 278° West 273 314 10,000 -49 Descending Seattle Center
Sun 02:34:27 PM 47.8553 -117.7133 277° West 280 322 10,000 738 Level Seattle Center
Sun 02:35:28 PM 47.8664 -117.8500 277° West 331 381 11,500 2,164 Climbing Seattle Center
Sun 02:36:29 PM 47.8756 -117.9833 276° West 327 376 14,400 2,311 Climbing Seattle Center
Sun 02:37:30 PM 47.8869 -118.1250 277° West 348 400 16,200 1,672 Climbing Seattle Center
Sun 02:38:31 PM 47.8983 -118.2764 276° West 368 423 17,800 1,770 Climbing Seattle Center
Sun 02:39:32 PM 47.9106 -118.4347 277° West 382 440 19,800 2,066 Climbing Seattle Center
Sun 02:40:33 PM 47.9258 -118.6319 277° West 399 459 22,000 1,967 Climbing Seattle Center
Sun 02:41:34 PM 47.9406 -118.8006 277° West 409 471 23,800 1,574 Climbing Seattle Center
Sun 02:42:35 PM 47.9636 -118.9686 282° West 414 476 25,200 1,279 Climbing Seattle Center
Sun 02:43:36 PM 48.0031 -119.1358 289° West 424 488 26,400 1,230 Climbing Seattle Center
Sun 02:44:37 PM 48.0428 -119.3133 289° West 448 516 27,700 1,525 Climbing Seattle Center
Sun 02:45:38 PM 48.0806 -119.4878 288° West 444 511 29,500 1,131 Climbing Seattle Center
Sun 02:46:39 PM 48.1206 -119.6661 289° West 450 518 30,000 244 Climbing Seattle Center
Sun 02:47:41 PM 48.1617 -119.8536 288° West 470 541 30,000  Level Seattle Center
Sun 02:48:42 PM 48.2050 -120.0458 289° West 483 556 30,000 -49 Level Seattle Center
Sun 02:49:43 PM 48.2419 -120.2400 286° West 488 562 29,900  Descending Seattle Center
Sun 02:50:44 PM 48.2831 -120.4342 288° West 492 566 30,000 49 Climbing Seattle Center
Sun 02:51:45 PM 48.3308 -120.6669 287° West 489 563 30,000  Level Seattle Center
Sun 02:52:46 PM 48.3642 -120.8442 286° West 487 560 30,000  Level Seattle Center
Sun 02:53:47 PM 48.3978 -121.0425 284° West 492 566 30,000  Level Seattle Center
Sun 02:54:48 PM 48.4300 -121.2383 284° West 488 562 30,000  Level Seattle Center
Sun 02:55:50 PM 48.4703 -121.4742 285° West 488 562 30,000  Level Seattle Center
Sun 02:56:51 PM 48.5022 -121.6703 284° West 486 559 30,000  Level Seattle Center
Sun 02:57:52 PM 48.5375 -121.8653 285° West 486 559 30,000 49 Level Seattle Center
Sun 02:58:53 PM 48.4944 -122.0372 249° West 485 558 30,100  Climbing Seattle Center
Sun 02:59:54 PM 48.3622 -121.9589 159° South 544 626 30,000 -49 Descending Seattle Center
Sun 03:00:55 PM 48.3506 -121.7314 94° East 568 654 30,000  Level Seattle Center
Sun 03:01:56 PM 48.3700 -121.5017 83° East 558 642 30,000  Level Seattle Center
Sun 03:02:57 PM 48.3878 -121.2708 83° East 556 640 30,000  Level Seattle Center
Sun 03:03:58 PM 48.4081 -121.0419 82° East 554 638 30,000  Level Seattle Center
Sun 03:05:00 PM 48.4261 -120.8106 83° East 555 639 30,000  Level Seattle Center
Sun 03:06:01 PM 48.4339 -120.5783 87° East 557 641 30,000  Level Seattle Center
Sun 03:07:02 PM 48.4261 -120.3242 93° East 558 642 30,000  Level Seattle Center
Sun 03:08:03 PM 48.4178 -120.0917 93° East 557 641 30,000  Level Seattle Center
Sun 03:09:04 PM 48.4061 -119.8589 94° East 558 642 30,000  Level Seattle Center
Sun 03:10:05 PM 48.3944 -119.6275 94° East 556 640 30,000  Level Seattle Center
Sun 03:11:06 PM 48.3800 -119.3950 95° East 561 646 30,000 -98 Level Seattle Center
Sun 03:12:07 PM 48.3647 -119.1636 96° East 559 643 29,800 -590 Descending Seattle Center
Sun 03:13:08 PM 48.3519 -118.9508 95° East 522 601 28,800 -934 Descending Seattle Center
Sun 03:14:09 PM 48.3392 -118.7228 95° East 469 540 27,900 -393 Descending Seattle Center
Sun 03:15:10 PM 48.3278 -118.5528 96° East 423 487 28,000 49 Climbing Seattle Center
Sun 03:16:11 PM 48.3164 -118.3819 96° East 414 476 28,000  Level Seattle Center
Sun 03:17:12 PM 48.3050 -118.2108 96° East 413 475 28,000  Level Seattle Center
Sun 03:18:14 PM 48.2942 -118.0381 95° East 414 476 28,000  Level Seattle Center
Sun 03:19:15 PM 48.2833 -117.8656 95° East 416 479 28,000  Level Seattle Center
Sun 03:20:16 PM 48.2708 -117.6942 96° East 414 476 28,000  Level Seattle Center
Sun 03:21:17 PM 48.2578 -117.5200 96° East 417 480 28,000  Level Seattle Center
Sun 03:22:18 PM 48.2450 -117.3461 96° East 417 480 28,000  Level Seattle Center
Sun 03:23:19 PM 48.2328 -117.1725 96° East 418 481 28,000  Level Seattle Center
Sun 03:24:20 PM 48.2203 -116.9981 96° East 419 482 28,000  Level Seattle Center
Sun 03:25:21 PM 48.2047 -116.8231 98° East 421 484 28,000 -49 Level Seattle Center
Sun 03:26:22 PM 48.1914 -116.6503 97° East 418 481 27,900  Descending Seattle Center
Sun 03:27:23 PM 48.1797 -116.4758 96° East 419 482 28,000 49 Climbing Seattle Center
Sun 03:28:24 PM 48.1625 -116.2658 97° East 421 484 28,000  Level Seattle Center
Sun 03:29:25 PM 48.1483 -116.0883 97° East 427 491 28,000  Level Seattle Center
Sun 03:30:26 PM 48.1806 -115.9133 75° East 461 531 28,000  Level Seattle Center
Sun 03:31:27 PM 48.2875 -115.9286 355° North 435 501 28,000  Level Seattle Center
Sun 03:32:28 PM 48.2892 -116.0886 271° West 418 481 28,000  Level Seattle Center
Sun 03:33:29 PM 48.2522 -116.2525 251° West 417 480 28,000  Level Seattle Center
Sun 03:34:30 PM 48.2164 -116.4183 252° West 419 482 28,000 -49 Level Seattle Center
Sun 03:35:31 PM 48.1978 -116.5903 261° West 420 483 27,900 -49 Descending Seattle Center
Sun 03:36:32 PM 48.2069 -116.7606 275° West 414 476 27,900  Level Seattle Center
Sun 03:37:33 PM 48.2211 -116.9292 277° West 412 474 27,900  Level Seattle Center
Sun 03:38:34 PM 48.2344 -117.0978 277° West 411 473 27,900  Level Seattle Center
Sun 03:39:35 PM 48.2483 -117.3011 276° West 411 473 27,900 49 Level Seattle Center
Sun 03:40:36 PM 48.2617 -117.4719 277° West 413 475 28,000 49 Climbing Seattle Center
Sun 03:41:37 PM 48.2775 -117.6481 278° West 422 486 28,000 -49 Level Seattle Center
Sun 03:42:38 PM 48.2950 -117.8433 278° West 461 531 27,900 -49 Descending Seattle Center
Sun 03:43:39 PM 48.3117 -118.0478 277° West 486 559 27,900 49 Level Seattle Center
Sun 03:44:40 PM 48.3311 -118.2492 278° West 491 565 28,000 49 Climbing Seattle Center
Sun 03:45:41 PM 48.3475 -118.4539 277° West 493 567 28,000  Level Seattle Center
Sun 03:46:42 PM 48.3614 -118.6553 276° West 489 563 28,000  Level Seattle Center
Sun 03:47:43 PM 48.3744 -118.8603 276° West 493 567 28,000  Level Seattle Center
Sun 03:48:44 PM 48.3906 -119.0608 277° West 490 564 28,000  Level Seattle Center
Sun 03:49:45 PM 48.4058 -119.3061 275° West 495 570 28,000  Level Seattle Center
Sun 03:50:46 PM 48.4197 -119.5131 276° West 500 575 28,000 -49 Level Seattle Center
Sun 03:51:47 PM 48.4319 -119.7172 275° West 494 568 27,900 -49 Descending Seattle Center
Sun 03:52:48 PM 48.4475 -119.9219 277° West 495 570 27,900 49 Level Seattle Center
Sun 03:53:49 PM 48.4606 -120.1264 276° West 494 568 28,000 49 Climbing Seattle Center
Sun 03:54:50 PM 48.4708 -120.3297 274° West 490 564 28,000  Level Seattle Center
Sun 03:55:51 PM 48.4778 -120.5542 273° West 488 562 28,000 1,041 Level Seattle Center
Sun 03:56:51 PM 48.4858 -120.7542 274° West 483 556 30,100 1,736 Climbing Seattle Center
Sun 03:57:52 PM 48.4892 -120.9444 272° West 463 533 31,500 1,426 Climbing Seattle Center
Sun 03:58:53 PM 48.4964 -121.1347 273° West 460 529 33,000 1,377 Climbing Seattle Center
Sun 03:59:54 PM 48.5022 -121.3233 273° West 454 522 34,300 1,230 Climbing Seattle Center
Sun 04:00:55 PM 48.5053 -121.5089 271° West 449 517 35,500 885 Climbing Seattle Center
Sun 04:01:56 PM 48.4136 -121.6247 220° Southwest 463 533 36,100 393 Climbing Seattle Center
Sun 04:02:57 PM 48.2997 -121.5111 146° Southeast 514 592 36,300 295 Climbing Seattle Center
Sun 04:03:58 PM 48.3186 -121.3050 82° East 509 586 36,700 639 Climbing Seattle Center
Sun 04:04:59 PM 48.3739 -121.1119 67° East 505 581 37,600 639 Climbing Seattle Center
Sun 04:06:00 PM 48.4264 -120.9178 68° East 502 578 38,000 197 Climbing Seattle Center
Sun 04:07:01 PM 48.4275 -120.7019 89° East 514 592 38,000 -148 Level Seattle Center
Sun 04:08:02 PM 48.4275 -120.4419 90° East 518 596 37,700 -393 Descending Seattle Center
Sun 04:09:03 PM 48.4217 -120.2417 92° East 530 610 37,200 -246 Descending Seattle Center
Sun 04:10:04 PM 48.4086 -120.0211 95° East 531 611 37,200  Level Seattle Center
Sun 04:11:05 PM 48.3969 -119.8000 94° East 530 610 37,200  Level Seattle Center
Sun 04:12:06 PM 48.3872 -119.5786 94° East 531 611 37,200  Level Seattle Center
Sun 04:13:07 PM 48.3747 -119.3569 95° East 532 612 37,200 -49 Level Seattle Center
Sun 04:14:08 PM 48.3622 -119.1353 95° East 533 613 37,100 -49 Descending Seattle Center
Sun 04:15:09 PM 48.3500 -118.8672 94° East 537 618 37,100  Level Seattle Center
Sun 04:16:10 PM 48.3386 -118.6439 94° East 538 619 37,100  Level Seattle Center
Sun 04:17:11 PM 48.3261 -118.4197 95° East 538 619 37,100  Level Seattle Center
Sun 04:18:12 PM 48.3150 -118.1956 94° East 538 619 37,100  Level Seattle Center
Sun 04:19:13 PM 48.2994 -117.9711 96° East 540 621 37,100  Level Seattle Center
Sun 04:20:14 PM 48.2847 -117.7483 96° East 538 619 37,100  Level Seattle Center
Sun 04:21:15 PM 48.2714 -117.5247 95° East 537 618 37,100  Level Seattle Center
Sun 04:22:16 PM 48.2558 -117.3028 96° East 535 616 37,100  Level Seattle Center
Sun 04:23:17 PM 48.2403 -117.0783 96° East 536 617 37,100  Level Seattle Center
Sun 04:24:18 PM 48.2222 -116.8553 97° East 537 618 37,100  Level Seattle Center
Sun 04:25:19 PM 48.2036 -116.6336 97° East 535 616 37,100  Level Seattle Center
Sun 04:26:20 PM 48.1836 -116.4108 98° East 537 618 37,100  Level Seattle Center
Sun 04:27:21 PM 48.1644 -116.1903 97° East 535 616 37,100  Level Seattle Center
Sun 04:28:22 PM 48.1467 -115.9689 97° East 535 616 37,100 443 Level Seattle Center
Sun 04:29:23 PM 48.1314 -115.7481 96° East 534 615 38,000 590 Climbing Seattle Center
Sun 04:30:24 PM 48.2256 -115.5872 49° Northeast 483 556 38,300 246 Climbing Seattle Center
Sun 04:31:25 PM 48.3058 -115.6825 322° Northwest 417 480 38,500 197 Climbing Seattle Center
Sun 04:32:26 PM 48.2889 -115.8636 262° West 423 487 38,700 244 Climbing Seattle Center
Sun 04:33:28 PM 48.2722 -116.0378 262° West 426 490 39,000 146 Climbing Seattle Center
Sun 04:34:29 PM 48.2578 -116.2158 263° West 430 495 39,000  Level Seattle Center
Sun 04:35:30 PM 48.2417 -116.3925 262° West 430 495 39,000  Level Seattle Center
Sun 04:36:31 PM 48.2278 -116.5706 263° West 433 498 39,000  Level Seattle Center
Sun 04:37:32 PM 48.2139 -116.7483 263° West 432 497 39,000  Level Seattle Center
Sun 04:38:33 PM 48.2097 -116.9244 268° West 427 491 39,000  Level Seattle Center
Sun 04:39:34 PM 48.2289 -117.0964 280° West 425 489 39,000  Level Seattle Center
Sun 04:40:35 PM 48.2481 -117.3072 278° West 425 489 39,000  Level Seattle Center
Sun 04:41:36 PM 48.2625 -117.4825 277° West 426 490 39,000 -49 Level Seattle Center
Sun 04:42:38 PM 48.2783 -117.6594 278° West 429 494 38,900  Descending Seattle Center
Sun 04:43:39 PM 48.2942 -117.8375 278° West 432 497 39,000 49 Climbing Seattle Center
Sun 04:44:40 PM 48.3097 -118.0144 278° West 432 497 39,000  Level Seattle Center
Sun 04:45:41 PM 48.3250 -118.1928 277° West 432 497 39,000  Level Seattle Center
Sun 04:46:42 PM 48.3417 -118.3694 278° West 431 496 39,000 -49 Level Seattle Center
Sun 04:47:43 PM 48.3536 -118.5503 276° West 436 502 38,900 -49 Descending Seattle Center
Sun 04:48:44 PM 48.3669 -118.7292 276° West 434 499 38,900 49 Level Seattle Center
Sun 04:49:45 PM 48.3814 -118.9436 276° West 431 496 39,000 49 Climbing Seattle Center
Sun 04:50:46 PM 48.3917 -119.1236 275° West 433 498 39,000  Level Seattle Center
Sun 04:51:47 PM 48.4003 -119.3067 274° West 440 506 39,000  Level Seattle Center
Sun 04:52:48 PM 48.4119 -119.4875 276° West 437 503 39,000 -49 Level Seattle Center
Sun 04:53:49 PM 48.4197 -119.6706 274° West 440 506 38,900  Descending Seattle Center
Sun 04:54:51 PM 48.4314 -119.8528 276° West 440 506 39,000 49 Climbing Seattle Center
Sun 04:55:52 PM 48.4422 -120.0347 275° West 439 505 39,000  Level Seattle Center
Sun 04:56:53 PM 48.4511 -120.2194 274° West 442 509 39,000 -49 Level Seattle Center
Sun 04:57:54 PM 48.4642 -120.4025 276° West 443 510 38,900  Descending Seattle Center
Sun 04:58:55 PM 48.4786 -120.6047 276° West 442 509 39,000 -443 Climbing Seattle Center
Sun 04:59:56 PM 48.5019 -120.7825 281° West 447 514 38,000 -4,820 Descending Seattle Center
Sun 05:00:57 PM 48.6222 -120.8128 351° North 456 525 29,200 -6,443 Descending Seattle Center
Sun 05:01:58 PM 48.6694 -120.6292 69° East 498 573 24,900 -2,557 Descending Seattle Center
Sun 05:02:59 PM 48.6067 -120.4750 122° Southeast 489 563 24,000 -1,770 Descending Seattle Center
Sun 05:04:00 PM 48.4761 -120.4556 174° South 458 527 21,300 -2,361 Descending Seattle Center
Sun 05:05:01 PM 48.3983 -120.5561 221° Southwest 431 496 19,200 -2,016 Descending Seattle Center
Sun 05:06:02 PM 48.3322 -120.7111 237° Southwest 406 467 17,200 -1,869 Descending Seattle Center
Sun 05:07:03 PM 48.2672 -120.8578 236° Southwest 389 448 15,400 -1,967 Descending Seattle Center
Sun 05:08:04 PM 48.2097 -120.9872 236° Southwest 377 434 13,200 -1,082 Descending Seattle Center
Sun 05:09:05 PM 48.1522 -121.1167 236° Southwest 375 432 13,200  Level Seattle Center
Sun 05:10:06 PM 48.0961 -121.2444 237° Southwest 371 427 13,200 -98 Level Seattle Center
Sun 05:11:07 PM 48.0336 -121.3731 234° Southwest 375 432 13,000 -158 Descending Seattle Center
Sun 05:11:22 PM 48.0181 -121.4136 240° Southwest 372 428 13,000 -514 Level Seattle Center
Sun 05:12:17 PM 47.9669 -121.5264 236° Southwest 354 407 12,400 -828 Descending Seattle Center
Sun 05:13:18 PM 47.9175 -121.6375 236° Southwest 310 357 11,400 -956 Descending Seattle Center
Sun 05:14:10 PM 47.8803 -121.7103 233° Southwest 295 339 10,600 -1,100 Descending Seattle Center
Sun 05:14:18 PM 47.8650 -121.7272 217° Southwest 284 327 10,300 -1,391 Descending Seattle Center
Sun 05:15:19 PM 47.7872 -121.7547 193° South 289 333 9,000 -1,368 Descending Seattle Center
Sun 05:16:12 PM 47.7158 -121.7822 195° South 287 330 7,700 -1,309 Descending Seattle Center
Sun 05:16:14 PM 47.7169 -121.7847 303° West 287 330 7,800 -1,279 Climbing Seattle Center
Sun 05:17:13 PM 47.6408 -121.8208 198° South 287 330 6,400 -1,377 Descending Seattle Center
Sun 05:17:15 PM 47.6417 -121.8206 13° North 285 328 6,400 -1,180 Level Seattle Center
Sun 05:18:14 PM 47.5714 -121.8708 206° Southwest 278 320 5,200 -1,164 Descending Seattle Center
Sun 05:18:22 PM 47.5608 -121.8792 208° Southwest 275 316 5,100 -300 Descending Seattle Center
Sun 05:19:14 PM 47.5097 -121.9264 212° Southwest 260 299 4,900 -197 Descending Seattle Center
Sun 05:19:23 PM 47.5019 -121.9353 218° Southwest 238 274 4,900 -787 Level Seattle Center
Sun 05:20:15 PM 47.4611 -121.9800 217° Southwest 223 257 4,100 -689 Descending Seattle Center
Sun 05:20:24 PM 47.4533 -121.9889 218° Southwest 211 243 4,200  Climbing Seattle Center
Sun 05:21:25 PM 47.4047 -122.0422 217° Southwest 214 246 4,100 -531 Descending Seattle Center
Sun 05:22:17 PM 47.3822 -122.1064 243° Southwest 205 236 3,200 -896 Descending Seattle Center
Sun 05:22:32 PM 47.3831 -122.1231 274° West 187 215 3,100 -197 Descending Seattle Center
Sun 05:23:18 PM 47.3933 -122.1772 286° West 183 211 3,000 -100 Descending Seattle Center
Sun 05:23:32 PM 47.4006 -122.1919 306° West 180 207 3,000 -870 Level Seattle Center
Sun 05:24:27 PM 47.4383 -122.2267 328° Northwest 173 199 2,000 -1,056 Descending Seattle Center
Sun 05:25:20 PM 47.4750 -122.2572 331° Northwest 169 194 1,100 -985 Descending Seattle Center
Sun 05:25:34 PM 47.4836 -122.2642 331° Northwest 164 189 900 -885 Descending Seattle Center
Sun 05:26:21 PM 47.5108 -122.2867 331° Northwest 160 184 200 6,722 Descending Seattle Center
Sun 05:27:22 PM 47.5436 -122.3142 330° Northwest 156 180 13,000 12,590 Climbing Seattle Center

Login

Don't have an account? Register now (free) for customized features, flight alerts, and more!